createdAt,value
2022-09-24T00:02:29.377Z,27.70
2022-09-24T00:05:14.756Z,24.05
2022-09-24T00:08:00.150Z,26.20
2022-09-24T00:10:47.396Z,26.17
2022-09-24T00:13:33.833Z,24.40
2022-09-24T00:16:21.809Z,27.50
2022-09-24T00:19:07.023Z,27.52
2022-09-24T00:21:52.493Z,29.60
2022-09-24T00:24:59.184Z,30.27
2022-09-24T00:27:44.424Z,30.88
2022-09-24T00:30:29.698Z,33.38
2022-09-24T00:33:15.319Z,32.30
2022-09-24T00:36:04.178Z,33.30
2022-09-24T00:39:00.292Z,32.33
2022-09-24T00:41:49.133Z,33.35
2022-09-24T00:44:40.734Z,33.17
2022-09-24T00:47:31.730Z,32.85
2022-09-24T00:50:31.678Z,32.58
2022-09-24T00:53:21.799Z,32.45
2022-09-24T00:56:11.013Z,32.70
2022-09-24T00:58:58.052Z,32.90
2022-09-24T01:01:44.896Z,34.45
2022-09-24T01:04:30.489Z,33.83
2022-09-24T01:07:15.839Z,32.95
2022-09-24T01:10:01.397Z,33.15
2022-09-24T01:13:02.153Z,32.08
2022-09-24T01:16:07.545Z,29.60
2022-09-24T01:21:55.209Z,30.27
2022-09-24T01:28:27.360Z,37.65
2022-09-24T01:31:38.715Z,41.30
2022-09-24T01:34:29.753Z,40.10
2022-09-24T01:37:17.397Z,38.85
2022-09-24T01:40:05.322Z,39.63
2022-09-24T01:42:53.378Z,37.35
2022-09-24T01:45:40.053Z,38.17
2022-09-24T01:48:29.768Z,39.13
2022-09-24T01:51:30.913Z,38.15
2022-09-24T01:54:25.441Z,37.97
2022-09-24T01:57:35.099Z,37.85
2022-09-24T02:00:21.950Z,35.97
2022-09-24T02:03:19.035Z,39.95
2022-09-24T02:06:30.448Z,37.33
2022-09-24T02:09:33.700Z,37.22
2022-09-24T02:12:42.241Z,33.97
2022-09-24T02:15:33.807Z,37.75
2022-09-24T02:18:23.766Z,34.45
2022-09-24T02:21:12.463Z,33.72
2022-09-24T02:24:36.576Z,36.30
2022-09-24T02:27:23.177Z,36.08
2022-09-24T02:30:09.029Z,36.90
2022-09-24T02:32:55.668Z,38.10
2022-09-24T02:35:41.019Z,41.35
2022-09-24T02:38:26.296Z,39.55
2022-09-24T02:41:15.146Z,39.15
2022-09-24T02:44:00.286Z,39.13
2022-09-24T02:46:46.774Z,41.50
2022-09-24T02:49:32.775Z,40.83
2022-09-24T02:52:20.986Z,40.75
2022-09-24T02:55:07.186Z,40.70
2022-09-24T02:57:55.779Z,42.60
2022-09-24T03:00:41.279Z,42.03
2022-09-24T03:03:27.066Z,41.78
2022-09-24T03:06:13.454Z,42.55
2022-09-24T03:08:59.427Z,44.67
2022-09-24T03:11:44.899Z,44.95
2022-09-24T03:14:30.311Z,46.10
2022-09-24T03:17:15.448Z,46.30
2022-09-24T03:20:01.259Z,45.50
2022-09-24T03:22:51.740Z,45.17
2022-09-24T03:25:37.510Z,48.38
2022-09-24T03:28:23.278Z,48.35
2022-09-24T03:31:09.598Z,47.38
2022-09-24T03:33:54.787Z,48.83
2022-09-24T03:36:40.034Z,47.90
2022-09-24T03:39:25.491Z,44.55
2022-09-24T03:42:10.992Z,46.35
2022-09-24T03:44:59.374Z,46.38
2022-09-24T03:47:49.120Z,46.13
2022-09-24T03:50:38.020Z,47.55
2022-09-24T03:53:23.626Z,46.58
2022-09-24T03:56:11.814Z,47.28
2022-09-24T03:58:57.316Z,48.05
2022-09-24T04:01:43.162Z,47.78
2022-09-24T04:04:28.633Z,47.45
2022-09-24T04:07:13.937Z,47.40
2022-09-24T04:10:01.919Z,49.00
2022-09-24T04:12:47.332Z,47.53
2022-09-24T04:15:33.106Z,46.45
2022-09-24T04:18:19.016Z,47.67
2022-09-24T04:21:04.498Z,47.28
2022-09-24T04:23:49.511Z,47.78
2022-09-24T04:26:34.981Z,49.05
2022-09-24T04:29:20.221Z,48.70
2022-09-24T04:32:05.559Z,49.97
2022-09-24T04:34:50.776Z,49.03
2022-09-24T04:37:36.839Z,48.67
2022-09-24T04:40:22.281Z,48.88
2022-09-24T04:43:07.587Z,49.58
2022-09-24T04:45:56.273Z,53.90
2022-09-24T04:48:42.217Z,53.30
2022-09-24T04:51:28.354Z,53.05
2022-09-24T04:54:16.524Z,55.97
2022-09-24T04:57:01.960Z,56.28
2022-09-24T04:59:47.699Z,59.30
2022-09-24T05:02:33.415Z,59.47
2022-09-24T05:05:18.428Z,60.53
2022-09-24T05:08:04.724Z,62.50
2022-09-24T05:10:49.867Z,61.60
2022-09-24T05:13:38.492Z,62.22
2022-09-24T05:16:23.693Z,66.95
2022-09-24T05:19:09.016Z,67.75
2022-09-24T05:21:54.387Z,67.30
2022-09-24T05:24:39.672Z,63.20
2022-09-24T05:27:24.927Z,65.18
2022-09-24T05:30:10.761Z,65.40
2022-09-24T05:32:55.941Z,51.75
2022-09-24T05:35:41.251Z,60.65
2022-09-24T05:38:29.860Z,52.97
2022-09-24T05:41:14.899Z,59.33
2022-09-24T05:44:01.319Z,56.22
2022-09-24T05:46:46.654Z,56.88
2022-09-24T05:49:32.116Z,56.15
2022-09-24T05:52:17.695Z,57.20
2022-09-24T05:55:03.087Z,57.53
2022-09-24T05:57:49.167Z,58.28
2022-09-24T06:00:38.808Z,59.72
2022-09-24T06:03:24.429Z,60.90
2022-09-24T06:06:10.027Z,59.95
2022-09-24T06:08:56.249Z,57.20
2022-09-24T06:11:42.103Z,60.33
2022-09-24T06:14:28.077Z,57.00
2022-09-24T06:17:13.448Z,58.00
2022-09-24T06:19:59.005Z,51.80
2022-09-24T06:22:46.971Z,53.03
2022-09-24T06:25:32.625Z,48.20
2022-09-24T06:28:17.889Z,41.58
2022-09-24T06:31:04.342Z,40.05
2022-09-24T06:33:49.812Z,31.92
2022-09-24T06:36:35.845Z,30.15
2022-09-24T06:39:25.945Z,29.35
2022-09-24T06:42:12.228Z,27.40
2022-09-24T06:44:57.805Z,24.58
2022-09-24T06:47:43.281Z,25.52
2022-09-24T06:50:30.620Z,22.33
2022-09-24T06:53:16.249Z,18.25
2022-09-24T06:56:03.582Z,14.45
2022-09-24T06:58:49.158Z,8.52
2022-09-24T07:01:34.533Z,6.80
2022-09-24T07:04:20.423Z,6.45
2022-09-24T07:07:24.724Z,4.93
2022-09-24T07:10:20.992Z,6.07
2022-09-24T07:13:09.046Z,5.13
2022-09-24T07:15:54.759Z,5.40
2022-09-24T07:18:43.334Z,5.07
2022-09-24T07:21:29.147Z,4.18
2022-09-24T07:24:14.508Z,5.18
2022-09-24T07:27:00.386Z,5.30
2022-09-24T07:29:45.576Z,4.90
2022-09-24T07:32:31.278Z,4.32
2022-09-24T07:35:17.245Z,4.72
2022-09-24T07:38:08.049Z,3.85
2022-09-24T07:40:58.970Z,4.70
2022-09-24T07:43:44.656Z,4.65
2022-09-24T07:46:30.327Z,4.22
2022-09-24T07:49:16.258Z,4.38
2022-09-24T07:52:02.104Z,4.70
2022-09-24T07:54:47.811Z,4.85
2022-09-24T07:57:37.340Z,4.65
2022-09-24T08:00:26.740Z,4.30
2022-09-24T08:03:12.222Z,4.57
2022-09-24T08:05:59.888Z,3.97
2022-09-24T08:08:45.636Z,4.38
2022-09-24T08:11:31.076Z,4.00
2022-09-24T08:14:16.557Z,4.25
2022-09-24T08:17:02.836Z,3.72
2022-09-24T08:19:48.744Z,4.13
2022-09-24T08:22:34.378Z,3.70
2022-09-24T08:25:19.734Z,3.33
2022-09-24T08:28:07.756Z,3.33
2022-09-24T08:30:58.253Z,3.75
2022-09-24T08:33:46.368Z,3.65
2022-09-24T08:36:31.977Z,3.65
2022-09-24T08:39:17.385Z,3.08
2022-09-24T08:42:15.292Z,3.15
2022-09-24T08:45:21.119Z,4.25
2022-09-24T08:48:20.317Z,3.53
2022-09-24T08:51:12.217Z,3.22
2022-09-24T08:54:04.400Z,3.15
2022-09-24T08:56:53.444Z,3.28
2022-09-24T08:59:43.341Z,3.35
2022-09-24T09:02:57.876Z,3.22
2022-09-24T09:05:51.414Z,3.00
2022-09-24T09:09:06.325Z,3.50
2022-09-24T09:12:02.352Z,2.97
2022-09-24T09:15:12.038Z,2.83
2022-09-24T09:18:07.262Z,3.35
2022-09-24T09:20:59.425Z,3.25
2022-09-24T09:23:49.035Z,3.20
2022-09-24T09:26:38.461Z,3.25
2022-09-24T09:29:28.078Z,2.97
2022-09-24T09:32:43.989Z,3.45
2022-09-24T09:35:40.468Z,3.85
2022-09-24T09:38:42.040Z,2.67
2022-09-24T09:42:04.152Z,3.20
2022-09-24T09:44:52.341Z,3.15
2022-09-24T09:47:45.919Z,3.20
2022-09-24T09:50:38.412Z,3.10
2022-09-24T09:53:29.325Z,3.13
2022-09-24T09:56:16.251Z,2.90
2022-09-24T09:59:13.577Z,2.85
2022-09-24T10:01:59.464Z,2.80
2022-09-24T10:04:45.223Z,3.10
2022-09-24T10:07:43.891Z,3.40
2022-09-24T10:10:30.027Z,3.05
2022-09-24T10:13:24.804Z,3.60
2022-09-24T10:16:12.193Z,3.65
2022-09-24T10:18:58.045Z,2.90
2022-09-24T10:21:43.809Z,3.00
2022-09-24T10:24:29.902Z,3.03
2022-09-24T10:27:28.305Z,3.53
2022-09-24T10:30:35.805Z,2.67
2022-09-24T10:33:27.681Z,2.92
2022-09-24T10:36:19.279Z,3.25
2022-09-24T10:39:07.901Z,2.65
2022-09-24T10:41:59.139Z,3.70
2022-09-24T10:44:48.067Z,2.88
2022-09-24T10:47:54.642Z,3.33
2022-09-24T10:51:11.783Z,3.20
2022-09-24T10:54:15.657Z,2.92
2022-09-24T10:57:12.161Z,2.42
2022-09-24T11:00:13.618Z,3.10
2022-09-24T11:03:39.516Z,3.25
2022-09-24T11:06:50.084Z,2.95
2022-09-24T11:10:10.891Z,2.33
2022-09-24T11:13:03.477Z,2.90
2022-09-24T11:16:10.352Z,2.58
2022-09-24T11:19:04.175Z,2.97
2022-09-24T11:22:12.548Z,2.05
2022-09-24T11:25:03.869Z,3.38
2022-09-24T11:28:01.013Z,2.30
2022-09-24T11:31:28.226Z,2.30
2022-09-24T11:34:37.027Z,2.28
2022-09-24T11:37:46.226Z,2.78
2022-09-24T11:40:40.851Z,3.38
2022-09-24T11:43:44.616Z,2.58
2022-09-24T11:47:01.379Z,2.40
2022-09-24T11:49:55.916Z,2.60
2022-09-24T11:53:01.309Z,3.00
2022-09-24T11:55:56.256Z,2.92
2022-09-24T11:58:50.441Z,2.35
2022-09-24T12:01:40.490Z,2.22
2022-09-24T12:05:00.785Z,2.70
2022-09-24T12:07:53.741Z,2.30
2022-09-24T12:11:03.077Z,2.95
2022-09-24T12:13:58.422Z,2.58
2022-09-24T12:16:45.654Z,2.28
2022-09-24T12:19:48.678Z,2.65
2022-09-24T12:22:37.089Z,3.15
2022-09-24T12:25:22.402Z,2.55
2022-09-24T12:28:55.265Z,2.95
2022-09-24T12:32:04.815Z,2.72
2022-09-24T12:35:03.538Z,2.50
2022-09-24T12:37:53.918Z,2.45
2022-09-24T12:40:54.493Z,2.25
2022-09-24T12:43:54.397Z,2.58
2022-09-24T12:46:43.310Z,1.92
2022-09-24T12:49:40.002Z,2.22
2022-09-24T12:52:43.240Z,3.13
2022-09-24T12:55:31.888Z,2.70
2022-09-24T12:58:43.762Z,2.63
2022-09-24T13:01:34.774Z,2.78
2022-09-24T13:04:20.434Z,1.80
2022-09-24T13:07:35.859Z,2.05
2022-09-24T13:10:29.352Z,2.10
2022-09-24T13:13:31.755Z,2.30
2022-09-24T13:16:21.424Z,2.65
2022-09-24T13:19:25.280Z,2.08
2022-09-24T13:22:30.008Z,2.45
2022-09-24T13:25:22.839Z,2.13
2022-09-24T13:28:35.250Z,2.42
2022-09-24T13:31:29.675Z,2.50
2022-09-24T13:34:22.301Z,2.97
2022-09-24T13:37:40.013Z,2.90
2022-09-24T13:40:32.273Z,2.80
2022-09-24T13:43:32.774Z,2.47
2022-09-24T13:46:19.763Z,2.72
2022-09-24T13:49:12.895Z,2.20
2022-09-24T13:52:14.359Z,2.00
2022-09-24T13:55:09.080Z,2.42
2022-09-24T13:57:54.693Z,2.33
2022-09-24T14:00:42.899Z,2.35
2022-09-24T14:03:33.075Z,1.70
2022-09-24T14:06:33.478Z,1.95
2022-09-24T14:09:22.085Z,1.92
2022-09-24T14:12:21.226Z,2.60
2022-09-24T14:15:18.192Z,2.42
2022-09-24T14:18:03.662Z,1.77
2022-09-24T14:24:59.896Z,1.70
2022-09-24T14:27:49.386Z,2.17
2022-09-24T14:30:38.693Z,1.70
2022-09-24T14:33:28.445Z,2.17
2022-09-24T14:36:15.181Z,1.90
2022-09-24T14:39:04.899Z,2.10
2022-09-24T14:41:50.466Z,2.00
2022-09-24T14:44:38.447Z,2.17
2022-09-24T14:47:32.973Z,1.98
2022-09-24T14:50:44.682Z,1.90
2022-09-24T14:53:36.093Z,1.95
2022-09-24T14:56:31.712Z,2.20
2022-09-24T14:59:28.723Z,1.80
2022-09-24T15:02:22.756Z,2.00
2022-09-24T15:05:09.189Z,1.90
2022-09-24T15:08:08.551Z,2.05
2022-09-24T15:10:58.900Z,1.77
2022-09-24T15:13:44.770Z,1.70
2022-09-24T15:16:36.252Z,1.90
2022-09-24T15:19:22.681Z,1.75
2022-09-24T15:22:08.917Z,2.00
2022-09-24T15:25:00.935Z,1.73
2022-09-24T15:27:49.493Z,1.67
2022-09-24T15:30:38.792Z,1.73
2022-09-24T15:33:24.296Z,1.75
2022-09-24T15:36:11.469Z,1.77
2022-09-24T15:39:02.658Z,2.22
2022-09-24T15:41:48.517Z,2.45
2022-09-24T15:44:34.411Z,1.63
2022-09-24T15:47:20.356Z,2.30
2022-09-24T15:50:06.333Z,2.45
2022-09-24T15:53:01.129Z,2.35
2022-09-24T15:55:50.247Z,1.98
2022-09-24T15:58:36.000Z,1.55
2022-09-24T16:01:21.862Z,2.50
2022-09-24T16:04:08.862Z,1.90
2022-09-24T16:06:54.402Z,1.63
2022-09-24T16:09:40.982Z,1.60
2022-09-24T16:12:28.230Z,2.10
2022-09-24T16:15:17.052Z,1.83
2022-09-24T16:18:02.646Z,1.85
2022-09-24T16:20:48.551Z,2.35
2022-09-24T16:23:34.065Z,1.67
2022-09-24T16:26:19.540Z,2.05
2022-09-24T16:29:06.715Z,2.05
2022-09-24T16:31:54.774Z,1.73
2022-09-24T16:34:40.959Z,1.70
2022-09-24T16:37:26.267Z,2.00
2022-09-24T16:40:12.220Z,2.00
2022-09-24T16:42:57.847Z,1.60
2022-09-24T16:45:43.353Z,1.60
2022-09-24T16:48:29.519Z,1.80
2022-09-24T16:51:14.776Z,1.85
2022-09-24T16:54:00.294Z,2.05
2022-09-24T16:56:50.088Z,1.77
2022-09-24T16:59:35.512Z,1.58
2022-09-24T17:02:21.067Z,1.50
2022-09-24T17:05:07.249Z,1.85
2022-09-24T17:07:52.629Z,1.98
2022-09-24T17:10:41.417Z,2.20
2022-09-24T17:13:28.694Z,1.75
2022-09-24T17:16:16.416Z,1.95
2022-09-24T17:19:01.876Z,2.20
2022-09-24T17:21:50.175Z,2.08
2022-09-24T17:24:39.836Z,1.98
2022-09-24T17:27:28.336Z,1.88
2022-09-24T17:30:14.053Z,2.30
2022-09-24T17:32:59.543Z,1.90
2022-09-24T17:35:54.467Z,1.65
2022-09-24T17:38:39.940Z,1.80
2022-09-24T17:41:26.053Z,1.98
2022-09-24T17:44:17.733Z,2.10
2022-09-24T17:47:03.224Z,2.08
2022-09-24T17:49:48.548Z,2.25
2022-09-24T17:52:33.757Z,1.95
2022-09-24T17:55:19.158Z,2.05
2022-09-24T17:58:04.564Z,2.10
2022-09-24T18:00:52.353Z,2.88
2022-09-24T18:03:38.227Z,2.65
2022-09-24T18:06:28.220Z,1.92
2022-09-24T18:09:19.099Z,2.13
2022-09-24T18:12:04.476Z,2.10
2022-09-24T18:14:49.781Z,2.20
2022-09-24T18:17:38.588Z,2.15
2022-09-24T18:20:27.101Z,2.75
2022-09-24T18:23:12.741Z,1.77
2022-09-24T18:26:10.725Z,1.92
2022-09-24T18:28:59.271Z,1.92
2022-09-24T18:31:46.477Z,2.13
2022-09-24T18:34:36.091Z,2.40
2022-09-24T18:37:21.638Z,2.20
2022-09-24T18:40:08.295Z,2.00
2022-09-24T18:43:00.328Z,1.70
2022-09-24T18:45:48.541Z,2.28
2022-09-24T18:48:39.914Z,2.10
2022-09-24T18:51:28.442Z,1.77
2022-09-24T18:54:16.357Z,2.50
2022-09-24T18:57:02.484Z,2.40
2022-09-24T18:59:48.618Z,2.45
2022-09-24T19:02:34.455Z,2.05
2022-09-24T19:05:21.479Z,2.50
2022-09-24T19:08:07.536Z,2.33
2022-09-24T19:10:55.759Z,2.70
2022-09-24T19:13:42.693Z,2.42
2022-09-24T19:16:28.452Z,2.70
2022-09-24T19:19:16.469Z,2.15
2022-09-24T19:22:02.831Z,2.55
2022-09-24T19:24:48.711Z,2.63
2022-09-24T19:27:34.463Z,2.50
2022-09-24T19:30:19.880Z,2.30
2022-09-24T19:33:06.103Z,2.95
2022-09-24T19:36:04.767Z,3.28
2022-09-24T19:38:51.264Z,3.05
2022-09-24T19:41:40.146Z,2.90
2022-09-24T19:44:25.711Z,3.92
2022-09-24T19:47:11.071Z,4.07
2022-09-24T19:49:56.636Z,4.22
2022-09-24T19:52:42.205Z,3.97
2022-09-24T19:55:32.272Z,3.47
2022-09-24T19:58:21.839Z,3.05
2022-09-24T20:01:11.402Z,3.53
2022-09-24T20:04:05.277Z,3.90
2022-09-24T20:06:50.817Z,3.72
2022-09-24T20:09:36.331Z,3.15
2022-09-24T20:12:21.787Z,3.88
2022-09-24T20:15:07.444Z,3.67
2022-09-24T20:17:53.610Z,3.85
2022-09-24T20:20:50.487Z,3.47
2022-09-24T20:23:35.871Z,4.60
2022-09-24T20:26:39.547Z,3.80
2022-09-24T20:29:25.074Z,3.88
2022-09-24T20:32:15.776Z,4.20
2022-09-24T20:35:01.073Z,4.90
2022-09-24T20:37:48.543Z,4.22
2022-09-24T20:40:38.591Z,3.20
2022-09-24T20:43:32.410Z,3.63
2022-09-24T20:46:24.349Z,3.53
2022-09-24T20:49:23.220Z,3.50
2022-09-24T20:52:09.008Z,4.60
2022-09-24T20:54:54.300Z,3.83
2022-09-24T20:57:43.812Z,3.88
2022-09-24T21:00:35.553Z,3.38
2022-09-24T21:03:42.769Z,4.22
2022-09-24T21:06:31.427Z,3.97
2022-09-24T21:09:17.362Z,4.10
2022-09-24T21:12:03.659Z,5.18
2022-09-24T21:14:49.213Z,4.65
2022-09-24T21:17:35.012Z,4.38
2022-09-24T21:20:20.244Z,3.85
2022-09-24T21:23:05.768Z,4.93
2022-09-24T21:25:54.561Z,4.25
2022-09-24T21:28:43.255Z,4.00
2022-09-24T21:31:31.752Z,4.50
2022-09-24T21:34:20.688Z,4.97
2022-09-24T21:37:09.184Z,4.95
2022-09-24T21:39:54.379Z,5.32
2022-09-24T21:42:40.192Z,4.78
2022-09-24T21:45:25.539Z,5.15
2022-09-24T21:48:11.329Z,5.35
2022-09-24T21:51:13.581Z,4.57
2022-09-24T21:54:07.125Z,4.78
2022-09-24T21:56:54.146Z,4.85
2022-09-24T21:59:57.671Z,5.28
2022-09-24T22:02:45.625Z,5.60
2022-09-24T22:05:36.203Z,5.53
2022-09-24T22:08:27.586Z,5.35
2022-09-24T22:11:14.623Z,4.97
2022-09-24T22:14:01.439Z,4.85
2022-09-24T22:16:50.026Z,4.63
2022-09-24T22:19:38.496Z,4.28
2022-09-24T22:22:24.006Z,4.80
2022-09-24T22:25:09.443Z,5.22
2022-09-24T22:27:54.727Z,5.03
2022-09-24T22:30:45.941Z,5.20
2022-09-24T22:33:50.273Z,4.97
2022-09-24T22:36:38.556Z,4.70
2022-09-24T22:39:29.176Z,5.10
2022-09-24T22:42:14.787Z,5.53
2022-09-24T22:44:59.997Z,6.30
2022-09-24T22:47:45.584Z,5.30
2022-09-24T22:50:30.886Z,5.32
2022-09-24T22:53:16.638Z,4.50
2022-09-24T22:56:07.919Z,4.68
2022-09-24T22:58:59.458Z,4.35
2022-09-24T23:01:44.767Z,4.95
2022-09-24T23:04:33.306Z,4.18
2022-09-24T23:07:18.788Z,4.30
2022-09-24T23:10:04.499Z,4.60
2022-09-24T23:12:50.280Z,4.10
2022-09-24T23:15:35.877Z,4.90
2022-09-24T23:18:21.020Z,4.15
2022-09-24T23:21:09.096Z,3.90
2022-09-24T23:23:56.718Z,4.38
2022-09-24T23:26:45.898Z,4.10
2022-09-24T23:29:31.572Z,4.40
2022-09-24T23:32:17.278Z,3.95
2022-09-24T23:35:02.839Z,4.07
2022-09-24T23:37:48.418Z,4.35
2022-09-24T23:40:33.993Z,5.00
2022-09-24T23:43:19.822Z,3.92
2022-09-24T23:46:10.214Z,4.97
2022-09-24T23:48:56.034Z,4.65
2022-09-24T23:51:41.296Z,4.88
2022-09-24T23:54:28.214Z,4.30
2022-09-24T23:57:13.477Z,4.18
2022-09-24T23:59:58.776Z,4.90
